Time;durP1;ratioP1;P1;durP2;ratioP2;P2;SDS_P1;SDS_P2;PMS_P1;PMS_P2;Temp;Humidity;BMP_temperature;BMP_pressure;BME280_temperature;BME280_humidity;BME280_pressure;Samples;Min_cycle;Max_cycle;Signal;HPM_P1;HPM_P2
2021/12/01 00:02:09;;;;;;;41.47;10.07;;;13.60;81.70;;;;;;4901118;29;20241;-88
2021/12/01 00:04:36;;;;;;;27.93;9.07;;;13.60;81.80;;;;;;4904718;29;20307;-88
2021/12/01 00:07:03;;;;;;;60.33;11.00;;;13.60;81.80;;;;;;4912809;29;20768;-88
2021/12/01 00:09:30;;;;;;;19.63;7.07;;;13.70;82.00;;;;;;4903048;29;20208;-88
2021/12/01 00:11:57;;;;;;;28.07;8.33;;;13.70;82.00;;;;;;4896726;29;20312;-88
2021/12/01 00:14:24;;;;;;;26.27;8.60;;;13.60;82.10;;;;;;4907931;29;20312;-88
2021/12/01 00:16:54;;;;;;;30.00;8.97;;;13.60;82.10;;;;;;4898961;29;20297;-89
2021/12/01 00:19:21;;;;;;;34.17;9.30;;;13.60;82.00;;;;;;4908944;29;20219;-90
2021/12/01 00:21:48;;;;;;;18.17;6.20;;;13.60;82.10;;;;;;4906607;29;20272;-90
2021/12/01 00:24:15;;;;;;;25.10;9.37;;;13.50;82.00;;;;;;4913057;29;20223;-88
2021/12/01 00:26:42;;;;;;;36.20;9.40;;;13.50;81.90;;;;;;4912455;29;20299;-88
2021/12/01 00:29:09;;;;;;;27.67;8.63;;;13.40;81.90;;;;;;4898359;29;20220;-88
2021/12/01 00:31:36;;;;;;;32.30;8.20;;;13.40;82.00;;;;;;4895889;29;20336;-88
2021/12/01 00:34:04;;;;;;;43.87;10.20;;;13.40;82.00;;;;;;4906510;29;20361;-91
2021/12/01 00:36:31;;;;;;;30.90;8.87;;;13.30;81.90;;;;;;4896194;29;20210;-91
2021/12/01 00:38:58;;;;;;;23.30;8.37;;;13.30;81.90;;;;;;4907598;29;20236;-90
2021/12/01 00:41:25;;;;;;;30.33;9.27;;;13.40;82.00;;;;;;4906581;29;20670;-88
2021/12/01 00:43:53;;;;;;;25.73;8.27;;;13.30;81.90;;;;;;4898520;29;20222;-91
2021/12/01 00:46:23;;;;;;;20.83;8.73;;;13.30;82.10;;;;;;4897808;29;20258;-90
2021/12/01 00:48:50;;;;;;;25.93;8.73;;;13.30;82.20;;;;;;4906489;29;20235;-89
2021/12/01 00:51:19;;;;;;;27.43;8.50;;;13.30;82.20;;;;;;4895757;29;20275;-88
2021/12/01 00:53:46;;;;;;;31.77;8.77;;;13.20;82.10;;;;;;4906423;29;20229;-88
2021/12/01 00:56:13;;;;;;;25.30;9.07;;;13.20;82.10;;;;;;4904603;29;20209;-88
2021/12/01 00:58:40;;;;;;;25.60;9.23;;;13.20;82.30;;;;;;4910147;29;20313;-88
2021/12/01 01:01:07;;;;;;;25.47;9.30;;;13.10;82.10;;;;;;4908692;29;20287;-89
2021/12/01 01:03:35;;;;;;;27.20;9.97;;;13.10;82.30;;;;;;4902786;29;20264;-89
2021/12/01 01:06:01;;;;;;;37.67;10.13;;;13.10;82.30;;;;;;4904847;29;20761;-86
2021/12/01 01:08:30;;;;;;;23.83;9.37;;;13.10;82.30;;;;;;4911656;29;20255;-90
2021/12/01 01:16:37;;;;;;;33.50;10.63;;;13.00;82.40;;;;;;4897575;29;20749;-88
2021/12/01 01:19:07;;;;;;;21.90;7.97;;;13.00;82.40;;;;;;4904921;29;20328;-88
2021/12/01 01:21:37;;;;;;;28.80;9.83;;;13.00;82.50;;;;;;4903199;29;20292;-89
2021/12/01 01:24:07;;;;;;;29.57;9.83;;;12.90;82.50;;;;;;4911202;29;20240;-88
2021/12/01 01:26:35;;;;;;;21.67;9.77;;;12.90;82.70;;;;;;4903720;29;20233;-88
2021/12/01 01:29:02;;;;;;;19.03;9.43;;;12.90;82.80;;;;;;4908725;29;20212;-87
2021/12/01 01:31:30;;;;;;;36.10;12.43;;;12.90;82.60;;;;;;4895588;29;20783;-89
2021/12/01 01:33:58;;;;;;;33.13;11.97;;;12.80;82.50;;;;;;4900721;29;20245;-90
2021/12/01 01:36:26;;;;;;;51.17;12.23;;;12.80;82.50;;;;;;4912420;29;20233;-90
2021/12/01 01:38:53;;;;;;;34.17;10.60;;;12.80;82.60;;;;;;4896882;29;20359;-89
2021/12/01 01:41:22;;;;;;;29.00;11.20;;;12.70;82.40;;;;;;4895278;29;20316;-88
2021/12/01 01:43:51;;;;;;;27.47;9.63;;;12.80;82.60;;;;;;4906384;29;20311;-89
2021/12/01 01:46:19;;;;;;;54.07;12.63;;;12.70;82.40;;;;;;4912548;29;20220;-87
2021/12/01 01:48:49;;;;;;;42.87;11.07;;;12.70;82.30;;;;;;4908524;29;20958;-89
2021/12/01 01:51:18;;;;;;;29.33;12.13;;;12.70;82.30;;;;;;4910856;29;20241;-89
2021/12/01 01:53:45;;;;;;;41.53;12.00;;;12.70;82.20;;;;;;4905447;29;20258;-87
2021/12/01 01:56:12;;;;;;;25.93;9.53;;;12.70;82.10;;;;;;4912001;29;20297;-87
2021/12/01 01:58:40;;;;;;;30.30;9.10;;;12.70;82.00;;;;;;4894893;29;20794;-89
2021/12/01 02:01:10;;;;;;;39.10;10.87;;;12.70;82.00;;;;;;4910794;29;20296;-88
2021/12/01 02:03:39;;;;;;;20.03;9.27;;;12.60;81.80;;;;;;4902348;29;20316;-89
2021/12/01 02:06:09;;;;;;;25.33;11.13;;;12.70;82.60;;;;;;4902731;29;20612;-89
2021/12/01 02:08:38;;;;;;;46.93;12.43;;;12.60;81.70;;;;;;4910268;29;20221;-89
2021/12/01 02:11:09;;;;;;;30.93;9.77;;;12.60;81.70;;;;;;4895593;29;20235;-88
2021/12/01 02:13:36;;;;;;;28.10;10.20;;;12.60;81.70;;;;;;4895997;29;20225;-91
2021/12/01 02:16:05;;;;;;;20.13;9.30;;;12.60;81.80;;;;;;4915446;29;20217;-92
2021/12/01 02:18:32;;;;;;;20.73;9.83;;;12.60;82.50;;;;;;4905113;29;20241;-95
2021/12/01 02:21:06;;;;;;;16.20;9.57;;;12.60;81.80;;;;;;4914849;29;20209;-92
2021/12/01 02:23:35;;;;;;;20.30;9.83;;;12.60;81.80;;;;;;4912894;29;20258;-92
2021/12/01 02:26:02;;;;;;;27.70;11.13;;;12.50;81.70;;;;;;4896823;29;20302;-91
2021/12/01 02:28:30;;;;;;;33.20;12.77;;;12.50;81.70;;;;;;4906254;29;20213;-90
2021/12/01 02:30:57;;;;;;;25.60;11.17;;;12.40;81.80;;;;;;4895873;29;20275;-88
2021/12/01 02:33:24;;;;;;;36.07;9.97;;;12.40;82.00;;;;;;4897515;29;20300;-90
2021/12/01 02:35:51;;;;;;;24.77;10.80;;;12.40;82.00;;;;;;4909017;29;20236;-90
2021/12/01 02:38:20;;;;;;;31.23;11.30;;;12.40;82.20;;;;;;4898421;29;20299;-91
2021/12/01 02:40:49;;;;;;;23.20;10.13;;;12.30;82.30;;;;;;4896295;29;20247;-89
2021/12/01 02:43:17;;;;;;;34.53;10.33;;;12.30;82.20;;;;;;4901088;29;20253;-90
2021/12/01 02:45:44;;;;;;;21.30;11.90;;;12.30;82.10;;;;;;4897126;29;20249;-89
2021/12/01 02:48:13;;;;;;;24.90;13.00;;;12.30;82.10;;;;;;4903159;29;20264;-88
2021/12/01 02:50:42;;;;;;;37.03;14.47;;;12.30;82.10;;;;;;4900329;29;20702;-91
2021/12/01 02:53:09;;;;;;;41.90;13.63;;;12.30;82.00;;;;;;4904521;29;20209;-89
2021/12/01 02:55:41;;;;;;;23.73;10.97;;;12.20;81.90;;;;;;4908559;29;20300;-89
2021/12/01 02:58:09;;;;;;;26.43;11.50;;;12.20;81.90;;;;;;4900295;29;20718;-89
2021/12/01 03:00:36;;;;;;;27.30;12.20;;;12.20;82.00;;;;;;4909874;29;20251;-89
2021/12/01 03:03:05;;;;;;;23.17;9.80;;;12.20;82.10;;;;;;4913379;29;20217;-90
2021/12/01 03:05:32;;;;;;;31.07;13.43;;;12.10;81.90;;;;;;4904100;29;20305;-89
2021/12/01 03:07:59;;;;;;;23.43;11.77;;;12.20;82.00;;;;;;4904113;29;20236;-91
2021/12/01 03:10:26;;;;;;;28.50;12.50;;;12.20;81.80;;;;;;4913547;29;20244;-88
2021/12/01 03:12:54;;;;;;;23.33;10.37;;;12.10;81.80;;;;;;4906093;29;20296;-89
2021/12/01 03:15:21;;;;;;;26.07;11.83;;;12.20;81.90;;;;;;4900970;29;20299;-89
2021/12/01 03:17:48;;;;;;;24.90;11.33;;;12.10;81.80;;;;;;4911037;29;20238;-89
2021/12/01 03:20:20;;;;;;;25.80;12.50;;;12.10;81.60;;;;;;4918277;29;20301;-89
2021/12/01 03:22:48;;;;;;;26.43;12.13;;;12.10;81.70;;;;;;4900603;29;20864;-89
2021/12/01 03:25:16;;;;;;;36.50;12.03;;;12.10;81.50;;;;;;4909961;29;20205;-90
2021/12/01 03:27:43;;;;;;;22.13;11.70;;;12.10;81.50;;;;;;4915601;29;20673;-89
2021/12/01 03:30:13;;;;;;;26.87;11.53;;;12.10;81.50;;;;;;4911969;29;20240;-89
2021/12/01 03:32:41;;;;;;;38.77;12.73;;;12.10;81.40;;;;;;4898542;29;20230;-89
2021/12/01 03:35:11;;;;;;;40.47;16.00;;;12.10;81.20;;;;;;4902969;29;20718;-89
2021/12/01 03:37:39;;;;;;;15.17;12.17;;;12.10;81.30;;;;;;4915876;29;20608;-90
2021/12/01 03:40:08;;;;;;;45.20;14.47;;;12.10;81.40;;;;;;4914547;29;20206;-90
2021/12/01 03:42:35;;;;;;;25.60;11.77;;;12.10;81.10;;;;;;4917254;29;20301;-89
2021/12/01 03:45:04;;;;;;;52.27;13.63;;;12.10;81.20;;;;;;4914443;29;20278;-90
2021/12/01 03:47:33;;;;;;;22.40;10.43;;;12.10;81.10;;;;;;4913496;29;20585;-90
2021/12/01 03:50:00;;;;;;;52.00;14.57;;;12.10;81.10;;;;;;4910264;29;20216;-89
2021/12/01 03:52:27;;;;;;;28.10;12.03;;;12.10;81.00;;;;;;4913848;29;20328;-89
2021/12/01 03:54:55;;;;;;;34.43;13.33;;;12.10;81.00;;;;;;4907101;29;20285;-90
2021/12/01 03:57:22;;;;;;;21.70;12.33;;;12.10;81.80;;;;;;4912066;29;20310;-89
2021/12/01 03:59:49;;;;;;;43.37;13.30;;;12.10;81.10;;;;;;4896644;29;20241;-89
2021/12/01 04:02:17;;;;;;;43.60;13.50;;;12.10;81.10;;;;;;4916071;29;20940;-91
2021/12/01 04:04:45;;;;;;;26.90;12.67;;;12.10;81.20;;;;;;4901246;29;20260;-91
2021/12/01 04:07:13;;;;;;;33.97;12.97;;;12.10;81.30;;;;;;4916748;29;20217;-91
2021/12/01 04:09:42;;;;;;;22.23;11.97;;;12.10;81.20;;;;;;4902346;29;20214;-91
2021/12/01 04:12:10;;;;;;;45.10;13.60;;;12.10;81.20;;;;;;4912653;29;20324;-88
2021/12/01 04:14:37;;;;;;;34.93;12.33;;;12.10;81.40;;;;;;4907494;29;20224;-89
2021/12/01 04:17:06;;;;;;;29.17;12.13;;;12.10;81.40;;;;;;4916783;29;20264;-88
2021/12/01 04:19:33;;;;;;;24.03;12.03;;;12.10;81.40;;;;;;4907100;29;20286;-92
2021/12/01 04:22:01;;;;;;;20.27;12.33;;;12.10;81.40;;;;;;4919233;29;20241;-91
2021/12/01 04:24:29;;;;;;;39.33;12.17;;;12.00;81.40;;;;;;4910944;29;20327;-88
2021/12/01 04:26:57;;;;;;;31.53;12.33;;;12.00;81.50;;;;;;4906545;29;20209;-90
2021/12/01 04:29:25;;;;;;;29.13;13.57;;;12.00;81.60;;;;;;4915812;29;20259;-90
2021/12/01 04:31:53;;;;;;;42.40;13.63;;;12.00;81.70;;;;;;4918387;29;20359;-90
2021/12/01 04:34:20;;;;;;;31.90;12.80;;;12.00;81.70;;;;;;4899974;29;20631;-90
2021/12/01 04:36:49;;;;;;;22.67;11.93;;;12.00;81.70;;;;;;4907179;29;20211;-91
2021/12/01 04:39:19;;;;;;;40.03;11.43;;;12.00;81.70;;;;;;4904220;29;20962;-90
2021/12/01 04:41:53;;;;;;;42.73;14.10;;;12.00;81.70;;;;;;4917076;29;20262;-90
2021/12/01 04:44:21;;;;;;;22.20;10.60;;;12.10;81.90;;;;;;4915256;29;20273;-90
2021/12/01 04:46:52;;;;;;;23.40;10.53;;;12.10;81.80;;;;;;4914971;29;20207;-91
2021/12/01 04:49:22;;;;;;;30.07;12.17;;;12.00;81.80;;;;;;4918262;29;20293;-91
2021/12/01 04:51:50;;;;;;;20.93;11.13;;;12.00;81.90;;;;;;4915352;29;20240;-91
2021/12/01 04:54:19;;;;;;;28.43;11.67;;;12.00;81.90;;;;;;4900392;29;20225;-90
2021/12/01 04:56:48;;;;;;;30.43;10.67;;;12.00;82.10;;;;;;4915569;29;20864;-89
2021/12/01 04:59:16;;;;;;;18.40;10.53;;;12.00;82.10;;;;;;4905571;29;20201;-90
2021/12/01 05:01:44;;;;;;;19.87;11.67;;;12.00;82.20;;;;;;4918830;29;20213;-89
2021/12/01 05:04:12;;;;;;;29.70;12.30;;;12.00;82.30;;;;;;4905659;29;20229;-89
2021/12/01 05:06:42;;;;;;;39.77;12.30;;;12.00;82.40;;;;;;4902401;29;20213;-90
2021/12/01 05:09:10;;;;;;;20.63;12.80;;;12.00;82.80;;;;;;4906818;29;20754;-90
2021/12/01 05:11:39;;;;;;;27.93;11.90;;;11.90;82.80;;;;;;4916656;29;20237;-89
2021/12/01 05:14:06;;;;;;;36.77;13.00;;;12.00;82.90;;;;;;4915464;29;20843;-89
2021/12/01 05:16:35;;;;;;;29.80;12.00;;;12.00;83.20;;;;;;4915041;29;20237;-90
2021/12/01 05:19:02;;;;;;;22.03;11.10;;;11.90;83.10;;;;;;4910308;29;20291;-89
2021/12/01 05:21:29;;;;;;;25.07;11.03;;;11.90;83.00;;;;;;4905958;29;20208;-90
2021/12/01 05:23:56;;;;;;;29.83;12.33;;;12.00;83.10;;;;;;4902135;29;20233;-92
2021/12/01 05:26:23;;;;;;;26.10;10.27;;;12.00;83.20;;;;;;4913025;29;20269;-90
2021/12/01 05:28:51;;;;;;;25.97;10.43;;;12.00;83.30;;;;;;4910482;29;20639;-90
2021/12/01 05:31:18;;;;;;;39.57;13.17;;;12.00;83.20;;;;;;4908803;29;20241;-90
2021/12/01 05:33:45;;;;;;;38.47;12.07;;;12.00;83.20;;;;;;4913790;29;20237;-90
2021/12/01 05:36:13;;;;;;;41.50;13.60;;;12.00;83.80;;;;;;4908469;29;20201;-90
2021/12/01 05:38:40;;;;;;;17.03;10.13;;;12.00;83.50;;;;;;4914833;29;20705;-93
2021/12/01 05:41:07;;;;;;;21.67;11.67;;;12.00;83.80;;;;;;4903013;29;20575;-91
2021/12/01 05:46:17;;;;;;;31.47;12.27;;;11.90;84.10;;;;;;1303530;27;20321;-91
2021/12/01 05:48:44;;;;;;;25.53;11.07;;;11.90;84.50;;;;;;4901320;29;20232;-92
2021/12/01 05:51:11;;;;;;;35.97;11.03;;;11.90;84.40;;;;;;4915667;29;20233;-91
2021/12/01 05:53:38;;;;;;;26.00;10.17;;;11.90;84.50;;;;;;4910799;29;20229;-89
2021/12/01 05:56:06;;;;;;;23.40;10.77;;;11.90;84.50;;;;;;4888691;29;20205;-89
2021/12/01 05:58:36;;;;;;;58.73;14.43;;;11.90;84.50;;;;;;4886873;29;20237;-91
2021/12/01 06:01:03;;;;;;;34.57;10.80;;;12.00;84.50;;;;;;4883260;29;21227;-88
2021/12/01 06:03:31;;;;;;;27.63;10.70;;;12.00;84.60;;;;;;4891947;29;20317;-91
2021/12/01 06:05:58;;;;;;;50.03;13.07;;;12.00;84.60;;;;;;4879652;29;20750;-90
2021/12/01 06:08:25;;;;;;;31.60;10.97;;;12.00;84.30;;;;;;4882163;29;20230;-92
2021/12/01 06:10:53;;;;;;;41.17;12.27;;;12.10;84.50;;;;;;4885722;29;21066;-91
2021/12/01 06:13:21;;;;;;;41.67;12.67;;;12.10;84.40;;;;;;4884230;29;20710;-91
2021/12/01 06:15:49;;;;;;;20.27;9.93;;;12.10;84.30;;;;;;4883840;29;20202;-90
2021/12/01 06:18:17;;;;;;;28.80;10.23;;;12.20;84.50;;;;;;4886886;29;20227;-90
2021/12/01 06:20:46;;;;;;;38.63;12.10;;;12.20;84.20;;;;;;4887194;29;20266;-89
2021/12/01 06:23:13;;;;;;;102.40;19.20;;;12.20;84.10;;;;;;4922874;23;20605;-89
2021/12/01 06:25:40;;;;;;;29.77;10.13;;;12.30;84.10;;;;;;4902775;29;20205;-90
2021/12/01 06:31:32;;;;;;;27.80;11.80;;;12.20;84.00;;;;;;4892123;29;20231;-89
2021/12/01 06:33:59;;;;;;;26.33;9.63;;;12.40;84.00;;;;;;4938230;23;20735;-92
2021/12/01 06:36:28;;;;;;;27.67;9.93;;;12.40;84.10;;;;;;4900378;29;20201;-87
2021/12/01 06:38:55;;;;;;;29.27;11.93;;;12.30;83.90;;;;;;4893557;29;20233;-91
2021/12/01 06:41:21;;;;;;;49.43;14.33;;;12.40;84.00;;;;;;4895120;29;20245;-92
2021/12/01 06:46:24;;;;;;;31.47;10.47;;;12.40;83.90;;;;;;5052059;23;20237;-92
2021/12/01 06:48:52;;;;;;;31.60;10.07;;;12.50;84.60;;;;;;4892686;29;20217;-91
2021/12/01 06:51:19;;;;;;;29.70;11.23;;;12.50;83.80;;;;;;4892890;29;20202;-89
2021/12/01 06:53:47;;;;;;;40.23;10.53;;;12.40;83.70;;;;;;4891014;29;20770;-88
2021/12/01 06:56:16;;;;;;;21.43;9.83;;;12.50;83.80;;;;;;4888206;29;20233;-89
2021/12/01 07:04:30;;;;;;;35.23;10.90;;;12.50;83.90;;;;;;4909116;29;20266;-90
2021/12/01 07:06:58;;;;;;;32.07;10.63;;;12.60;83.70;;;;;;4911557;29;20660;-90
2021/12/01 07:09:26;;;;;;;29.17;11.20;;;12.60;83.70;;;;;;4900845;29;20257;-91
2021/12/01 07:11:54;;;;;;;19.00;9.17;;;12.50;83.60;;;;;;4902880;29;20269;-89
2021/12/01 07:14:21;;;;;;;45.20;10.87;;;12.60;83.60;;;;;;4904066;29;20341;-88
2021/12/01 07:16:49;;;;;;;23.07;10.17;;;12.60;83.60;;;;;;4910328;29;20300;-90
2021/12/01 07:19:16;;;;;;;39.40;12.40;;;12.60;83.50;;;;;;4910266;29;20318;-88
2021/12/01 07:21:43;;;;;;;49.70;12.67;;;12.60;83.40;;;;;;4908722;29;20317;-87
2021/12/01 07:24:36;;;;;;;22.17;9.80;;;12.70;83.40;;;;;;4950480;23;20730;-88
2021/12/01 07:27:03;;;;;;;22.00;10.53;;;12.70;83.20;;;;;;4905271;29;20245;-88
2021/12/01 07:29:30;;;;;;;25.57;9.27;;;12.70;83.20;;;;;;4911510;29;20283;-87
2021/12/01 07:31:57;;;;;;;46.50;11.27;;;12.70;83.20;;;;;;4899776;29;20233;-88
2021/12/01 07:34:24;;;;;;;37.93;11.43;;;12.70;83.10;;;;;;4911453;29;20646;-88
2021/12/01 07:36:51;;;;;;;25.90;11.67;;;12.70;83.10;;;;;;4911323;29;20309;-88
2021/12/01 07:39:19;;;;;;;42.03;12.80;;;12.70;83.10;;;;;;4907473;29;20205;-87
2021/12/01 07:41:49;;;;;;;40.20;11.53;;;12.80;83.10;;;;;;4902411;29;20222;-88
2021/12/01 07:44:16;;;;;;;26.03;10.77;;;12.80;83.10;;;;;;4890024;29;20699;-88
2021/12/01 07:46:43;;;;;;;36.93;11.97;;;12.80;83.00;;;;;;4893331;29;20278;-87
2021/12/01 07:49:10;;;;;;;31.37;11.07;;;12.80;83.00;;;;;;4889734;29;20202;-87
2021/12/01 07:51:37;;;;;;;33.37;12.30;;;12.80;82.90;;;;;;4888131;29;20300;-87
2021/12/01 07:54:04;;;;;;;30.27;10.90;;;12.80;82.90;;;;;;4892137;29;20320;-86
2021/12/01 07:56:32;;;;;;;37.63;11.63;;;12.80;82.90;;;;;;4892958;29;20285;-87
2021/12/01 07:59:01;;;;;;;39.80;11.00;;;12.80;82.90;;;;;;4892504;29;20702;-89
2021/12/01 08:01:28;;;;;;;40.03;11.17;;;12.90;83.00;;;;;;4892899;29;20208;-89
2021/12/01 08:03:55;;;;;;;32.93;10.30;;;12.80;82.30;;;;;;4893286;29;20314;-88
2021/12/01 08:06:22;;;;;;;52.40;11.57;;;12.80;82.10;;;;;;4895823;29;20256;-90
2021/12/01 08:08:49;;;;;;;37.87;10.23;;;12.80;81.60;;;;;;4896275;29;20214;-90
2021/12/01 08:11:16;;;;;;;52.47;12.17;;;12.80;81.20;;;;;;4890654;29;20306;-88
2021/12/01 08:13:43;;;;;;;25.77;9.60;;;12.80;80.70;;;;;;4892487;29;20324;-90
2021/12/01 08:16:12;;;;;;;31.97;10.07;;;12.80;80.60;;;;;;4895528;29;20297;-87
2021/12/01 08:18:39;;;;;;;35.87;12.03;;;12.80;80.10;;;;;;4896391;29;20206;-89
2021/12/01 08:21:06;;;;;;;30.47;11.57;;;12.70;79.80;;;;;;4896590;29;20636;-90
2021/12/01 08:23:33;;;;;;;25.03;10.87;;;12.70;79.80;;;;;;4896025;29;20321;-91
2021/12/01 08:26:00;;;;;;;29.33;13.60;;;12.70;78.80;;;;;;4895714;29;20794;-88
2021/12/01 08:28:27;;;;;;;37.53;10.20;;;12.70;78.40;;;;;;4895947;29;20241;-90
2021/12/01 08:30:53;;;;;;;22.17;10.67;;;12.60;78.20;;;;;;4899189;29;20238;-90
2021/12/01 08:33:22;;;;;;;27.53;12.47;;;12.60;77.70;;;;;;4900081;29;20293;-90
2021/12/01 08:35:49;;;;;;;29.97;10.80;;;12.50;77.10;;;;;;4899048;29;20238;-90
2021/12/01 08:38:16;;;;;;;28.27;11.77;;;12.50;77.10;;;;;;4898629;29;20241;-89
2021/12/01 08:40:43;;;;;;;23.10;9.93;;;12.50;77.00;;;;;;4899539;29;20214;-88
2021/12/01 08:43:10;;;;;;;38.80;12.00;;;12.50;76.70;;;;;;4897212;29;20298;-88
2021/12/01 08:45:37;;;;;;;27.87;11.43;;;12.40;76.70;;;;;;4897476;29;20300;-89
2021/12/01 08:48:05;;;;;;;25.80;10.93;;;12.40;77.00;;;;;;4897541;29;20289;-89
2021/12/01 08:50:35;;;;;;;31.23;11.73;;;12.40;77.00;;;;;;4897976;29;20608;-90
2021/12/01 08:53:02;;;;;;;46.47;11.87;;;12.40;77.00;;;;;;4896839;29;20268;-89
2021/12/01 08:55:29;;;;;;;45.17;11.97;;;12.30;77.20;;;;;;4878646;29;20253;-90
2021/12/01 08:57:56;;;;;;;37.17;12.93;;;12.30;77.60;;;;;;4878116;29;20722;-89
2021/12/01 09:00:24;;;;;;;32.57;12.00;;;12.30;77.60;;;;;;4878792;29;20264;-90
2021/12/01 09:02:50;;;;;;;23.77;10.07;;;12.30;76.90;;;;;;4879994;29;20206;-90
2021/12/01 09:05:18;;;;;;;25.37;10.93;;;12.30;76.20;;;;;;4945281;23;20269;-90
2021/12/01 09:07:46;;;;;;;32.63;12.93;;;12.20;76.00;;;;;;4898191;29;20235;-92
2021/12/01 09:10:14;;;;;;;39.93;11.40;;;12.20;76.30;;;;;;4896829;29;20297;-90
2021/12/01 09:12:42;;;;;;;26.77;12.07;;;12.20;76.40;;;;;;4898036;29;20231;-91
2021/12/01 09:15:09;;;;;;;34.50;10.00;;;12.20;76.70;;;;;;4894739;29;20225;-89
2021/12/01 09:17:36;;;;;;;36.03;10.97;;;12.20;76.40;;;;;;4897935;29;20307;-89
2021/12/01 09:20:04;;;;;;;60.83;15.43;;;12.10;76.00;;;;;;4898234;29;20249;-89
2021/12/01 09:22:31;;;;;;;38.13;12.17;;;12.10;75.40;;;;;;4897827;29;20668;-91
2021/12/01 09:25:00;;;;;;;19.40;9.97;;;12.10;75.40;;;;;;4898159;29;20234;-90
2021/12/01 09:27:27;;;;;;;27.77;10.60;;;12.10;74.80;;;;;;4898544;29;20280;-90
2021/12/01 09:29:54;;;;;;;36.07;13.23;;;12.00;75.10;;;;;;4884826;29;20301;-90
2021/12/01 09:32:21;;;;;;;26.70;10.87;;;12.00;75.00;;;;;;4882623;29;20283;-87
2021/12/01 09:34:48;;;;;;;26.00;10.80;;;12.00;75.00;;;;;;4890608;29;20754;-91
2021/12/01 09:37:16;;;;;;;29.73;11.00;;;12.00;75.00;;;;;;4898448;29;20245;-89
2021/12/01 09:39:43;;;;;;;25.40;10.87;;;11.90;74.80;;;;;;4897024;29;20201;-87
2021/12/01 09:42:12;;;;;;;29.60;11.80;;;12.00;75.10;;;;;;4897678;29;20249;-88
2021/12/01 09:44:40;;;;;;;42.03;13.37;;;11.90;75.30;;;;;;4897400;29;20365;-90
2021/12/01 09:47:07;;;;;;;22.20;11.33;;;12.00;75.30;;;;;;4897384;29;20819;-90
2021/12/01 09:49:34;;;;;;;37.07;11.17;;;11.90;75.00;;;;;;4897489;29;20206;-91
2021/12/01 09:52:02;;;;;;;25.53;11.17;;;11.90;74.40;;;;;;4898556;29;20250;-88
2021/12/01 09:54:29;;;;;;;25.87;11.10;;;12.00;74.20;;;;;;4898868;29;20325;-91
2021/12/01 09:56:56;;;;;;;25.97;12.47;;;11.90;74.10;;;;;;4898398;29;20206;-90
2021/12/01 09:59:24;;;;;;;33.03;11.20;;;11.90;74.80;;;;;;4898480;29;20258;-92
2021/12/01 10:01:51;;;;;;;23.83;10.77;;;12.00;74.80;;;;;;4897399;29;20245;-88
2021/12/01 10:04:18;;;;;;;41.70;12.57;;;11.90;74.60;;;;;;4894764;29;20803;-92
2021/12/01 10:06:45;;;;;;;56.07;12.83;;;11.90;74.90;;;;;;4891771;29;20237;-92
2021/12/01 10:09:14;;;;;;;46.43;14.80;;;11.90;75.00;;;;;;4893105;29;20298;-89
2021/12/01 10:11:43;;;;;;;26.87;12.07;;;11.90;74.70;;;;;;4891393;29;20202;-89
2021/12/01 10:14:17;;;;;;;19.03;10.73;;;11.90;74.70;;;;;;4895246;29;20234;-94
2021/12/01 10:16:46;;;;;;;27.20;11.23;;;11.90;74.60;;;;;;4897252;29;20753;-90
2021/12/01 10:19:16;;;;;;;24.30;12.40;;;11.90;74.50;;;;;;4894839;29;20292;-82
2021/12/01 10:21:46;;;;;;;19.53;12.07;;;12.00;75.10;;;;;;4880092;29;20202;-84
2021/12/01 10:24:15;;;;;;;25.10;11.07;;;12.00;75.00;;;;;;4894105;29;20230;-82
2021/12/01 10:26:45;;;;;;;33.77;10.57;;;11.90;74.80;;;;;;4893517;29;20292;-81
2021/12/01 10:29:13;;;;;;;34.33;12.93;;;12.00;75.00;;;;;;4893233;29;20982;-85
2021/12/01 10:31:42;;;;;;;47.63;14.80;;;12.00;75.00;;;;;;4892598;29;20244;-87
2021/12/01 10:34:19;;;;;;;32.97;12.13;;;12.00;75.00;;;;;;4893429;29;20316;-86
2021/12/01 10:36:49;;;;;;;31.27;10.80;;;12.10;74.50;;;;;;4893710;29;20209;-84
2021/12/01 10:39:16;;;;;;;39.33;13.77;;;12.10;74.30;;;;;;4893223;29;20254;-84
2021/12/01 10:41:43;;;;;;;27.73;12.47;;;12.10;75.00;;;;;;4893365;29;20318;-86
2021/12/01 10:44:12;;;;;;;26.13;13.10;;;12.10;74.90;;;;;;4894117;29;20621;-85
2021/12/01 10:46:47;;;;;;;26.93;10.33;;;12.20;74.90;;;;;;4893910;29;20296;-88
2021/12/01 10:49:17;;;;;;;28.37;9.60;;;12.20;74.80;;;;;;4893447;29;20667;-88
2021/12/01 10:51:46;;;;;;;31.17;10.67;;;12.20;75.10;;;;;;4893186;29;20215;-90
2021/12/01 10:54:19;;;;;;;28.20;11.27;;;12.30;74.70;;;;;;4893292;29;20614;-85
2021/12/01 10:56:46;;;;;;;28.40;13.63;;;12.30;74.20;;;;;;4893920;29;20201;-90
2021/12/01 10:59:14;;;;;;;30.10;11.30;;;12.30;74.20;;;;;;4894488;29;20292;-93
2021/12/01 11:01:41;;;;;;;32.67;13.17;;;12.30;73.70;;;;;;4893308;29;20266;-89
2021/12/01 11:04:08;;;;;;;27.10;11.27;;;12.30;73.60;;;;;;4894164;29;21079;-89
2021/12/01 11:06:42;;;;;;;34.57;13.37;;;12.30;73.70;;;;;;4893752;29;20232;-83
2021/12/01 11:09:09;;;;;;;46.13;12.30;;;12.30;72.70;;;;;;4893883;29;20206;-85
2021/12/01 11:11:41;;;;;;;31.90;12.20;;;12.30;74.60;;;;;;4893493;29;20205;-87
2021/12/01 11:14:10;;;;;;;13.90;8.73;;;12.40;73.70;;;;;;4893625;29;20237;-94
2021/12/01 11:16:38;;;;;;;14.57;8.80;;;12.40;73.90;;;;;;4895129;29;20223;-91
2021/12/01 11:19:05;;;;;;;30.80;8.40;;;12.40;74.40;;;;;;4897255;29;20201;-92
2021/12/01 11:21:32;;;;;;;15.33;9.87;;;12.50;74.70;;;;;;4898137;29;20217;-83
2021/12/01 11:24:06;;;;;;;27.97;9.33;;;12.50;73.80;;;;;;4895835;29;20264;-83
2021/12/01 11:26:34;;;;;;;16.77;9.70;;;12.60;74.10;;;;;;4896800;29;20284;-92
2021/12/01 11:29:04;;;;;;;29.93;11.27;;;12.70;73.50;;;;;;4892537;29;20668;-83
2021/12/01 11:31:33;;;;;;;16.83;8.40;;;12.60;72.70;;;;;;4887156;29;20206;-89
2021/12/01 11:34:01;;;;;;;27.03;9.07;;;12.70;72.10;;;;;;4895742;29;20767;-92
2021/12/01 11:36:30;;;;;;;20.83;9.03;;;12.70;71.70;;;;;;4895219;29;20241;-88
2021/12/01 11:39:01;;;;;;;23.33;8.23;;;12.70;72.30;;;;;;4898820;29;20289;-83
2021/12/01 11:41:29;;;;;;;17.20;8.53;;;12.70;72.50;;;;;;4902041;29;20234;-90
2021/12/01 11:43:57;;;;;;;21.70;10.03;;;12.70;72.50;;;;;;4894916;29;20224;-81
2021/12/01 11:46:24;;;;;;;18.07;8.57;;;12.70;72.60;;;;;;4901529;29;20243;-92
2021/12/01 11:48:53;;;;;;;19.00;9.37;;;12.70;72.50;;;;;;4904717;29;20210;-83
2021/12/01 11:51:23;;;;;;;18.53;10.00;;;12.70;72.70;;;;;;4901557;29;20293;-91
2021/12/01 11:53:54;;;;;;;53.20;12.07;;;12.70;72.80;;;;;;4897850;29;20701;-89
2021/12/01 11:56:26;;;;;;;21.27;9.57;;;12.70;72.10;;;;;;4901723;29;20673;-95
2021/12/01 11:59:00;;;;;;;12.33;9.50;;;12.70;71.90;;;;;;4904225;29;20237;-83
2021/12/01 12:01:50;;;;;;;21.00;8.80;;;12.70;71.20;;;;;;4907559;29;20245;-82
2021/12/01 12:04:24;;;;;;;23.43;11.23;;;12.60;70.70;;;;;;4906064;29;20709;-90
2021/12/01 12:06:53;;;;;;;17.53;8.83;;;12.60;71.60;;;;;;4913919;29;20197;-88
2021/12/01 12:09:22;;;;;;;37.40;11.03;;;12.60;72.20;;;;;;4909514;29;20206;-96
2021/12/01 12:11:52;;;;;;;24.97;11.93;;;12.60;72.30;;;;;;4902453;29;20211;-86
2021/12/01 12:14:22;;;;;;;20.97;10.00;;;12.60;72.20;;;;;;4904099;29;20323;-84
2021/12/01 12:17:04;;;;;;;19.43;10.20;;;12.50;72.20;;;;;;4903162;29;20209;-91
2021/12/01 12:20:12;;;;;;;14.00;9.43;;;12.50;72.30;;;;;;4907342;29;20216;-86
2021/12/01 12:23:01;;;;;;;21.87;10.67;;;12.50;72.10;;;;;;4908918;29;20205;-95
2021/12/01 12:25:56;;;;;;;20.27;10.27;;;12.50;72.50;;;;;;4908179;29;20206;-85
2021/12/01 12:28:31;;;;;;;28.27;10.77;;;12.50;72.50;;;;;;4906833;29;20190;-92
2021/12/01 12:31:01;;;;;;;18.57;9.27;;;12.40;71.90;;;;;;4905821;29;20208;-94
2021/12/01 12:33:31;;;;;;;22.13;10.33;;;12.40;72.50;;;;;;4903350;29;20225;-85
2021/12/01 12:36:00;;;;;;;26.83;9.67;;;12.40;72.50;;;;;;4909765;29;20183;-96
2021/12/01 12:38:27;;;;;;;30.70;11.67;;;12.40;72.60;;;;;;4906915;29;20216;-93
2021/12/01 12:41:11;;;;;;;20.53;9.93;;;12.40;72.40;;;;;;4907780;29;20251;-84
2021/12/01 12:43:42;;;;;;;15.23;9.63;;;12.30;72.00;;;;;;4909811;29;20258;-90
2021/12/01 12:46:12;;;;;;;27.97;9.40;;;12.30;72.30;;;;;;4907442;29;20229;-93
2021/12/01 12:48:42;;;;;;;14.97;9.73;;;12.30;71.90;;;;;;4903711;29;20692;-96
2021/12/01 12:51:21;;;;;;;26.60;10.37;;;12.30;72.30;;;;;;4902025;29;20209;-89
2021/12/01 12:54:23;;;;;;;22.60;9.37;;;12.20;72.20;;;;;;4902666;29;20236;-94
2021/12/01 12:56:54;;;;;;;47.47;12.50;;;12.20;71.30;;;;;;4840735;29;20683;-76